Simon Bolivar, Colombia

12:25 PM COT en Agosto 26, 2016 (GMT -0500)
Simon Bolivar | | Change Station

Alt 13 ft 11.12 °N, 74.23 °W | Updated 25 minutes ago

Scattered Clouds
Nubes dispersas
88 ° F
Sensación térmica 98 ° F
N
18
Viento Variable Viento desde SSO

Hoy
Alta -- | Baja -- ° F
--% Posibilidad de precipitaciones
Ayer
Alta -- | Baja -- ° F
Precip. -- pul
Presión 29.84 pul
Visibilidad 6.2 Millas
Nubes Muy nublado 2000 ft
Nubes dispersas 20000 ft
Índice de calor 98 ° F
Punto de rocío 75 ° F
Humedad 66%
Precipitaciones 0.00 pul
Espesor de la nieve No disponible.
5:47 AM 6:09 PM
Creciente menguante, 33% visible
METAR SKSM 261700Z 21016KT 9999 BKN020CB SCT200 31/24 A2984 RMK CB/W
Presión 29.84 pul
Visibilidad 6.2 Millas
Nubes Muy nublado 2000 ft
Nubes dispersas 20000 ft
Índice de calor 98 ° F
Punto de rocío 75 ° F
Humedad 66%
Precipitaciones 0.00 pul
Espesor de la nieve No disponible.
5:47 AM 6:09 PM
Creciente menguante, 33% visible
METAR SKSM 261700Z 21016KT 9999 BKN020CB SCT200 31/24 A2984 RMK CB/W

10-Day Weather Forecast

No radar image for this location.
×

Almanac

Astronomía

Aug. 26, 2016 Salida Puesta
Hora real
Crepúsculo civil
Crepúsculo náutico
Crepúsculo astronómico
Luna
Horas de luz
Horas de luz
Tomorrow will be .
, % of the Moon is Illuminated

Extremos de hoy

Máximos del país Bajas del país

Community

WunderPhotos

Upload Photos

1,935,145 ¡fotos cargadas!

WunderBlog® & News

Nearby

Calidad del aire

  Calidad del aire Índice AQ Contaminante
Not available.

Grosos de nieve

Estación Profundido Altura

Actividad de terremotos

Ciudad Distance Mag. Tiempo y dato
Magnitud mínima muestra es 2,5.

Temperaturas de aguas costeras

Lugar Temperatura

Stations

Estaciones meteorológicas cercanas

Ubicación de la estación Temp. Vientos helados Punto de rocío Humedad Viento Precip. Alt Actualizado Tipo